Pemaquid Point Lighthouse, ME

43° 50' 13"N, 69° 30' 22"W, Elevation 40 ft.
Eastern Time

Hourly observations for the last 72 hours

Date Time Temperature (°F) Humi-
dity

(%)
Wind
(mph)
Pressure Rain (in) Sun
(W/m2)
UV ET
(in)
Air Dew 6 Hour 1 Hr 3 Hr 6 Hr Day
Alt
(in)
Sea
Level

(mb)
Max Min
23 03:00 63.4 53.1 69 NNE 1 G 5 30.03 1016.9 0.00 0 0.0 0.004
23 02:00 63.6 53.6 64.1 61.1 70 N 4 G 8 30.04 1017.3 0.00 0 0.0 0.002
23 01:00 64.0 54.0 70 NNE 8 G 13 30.04 1017.3 0.00 0 0.0 0.000
23 00:00 63.1 52.8 69 NE 9 G 11 30.04 1017.2 0.00 0 0.0 0.083
22 23:00 63.1 53.2 70 NE 11 G 17 30.05 1017.5 0.00 0 0.0 0.080
22 22:00 63.3 54.9 74 NE 14 G 18 30.06 1017.8 0.00 0 0.0 0.078
22 21:00 61.4 55.2 80 NE 2 G 6 30.06 1017.8 0.00 0 0.0 0.077
22 20:00 62.0 54.7 66.6 60.1 77 NE 7 G 9 30.05 1017.6 0.00 0 0.0 0.075
22 19:00 60.5 55.0 82 NE 8 G 10 30.04 1017.3 0.00 0 0.0 0.074
22 18:00 60.2 55.7 85 NE 5 G 9 30.05 1017.6 0.00 19 0.0 0.072
22 17:00 65.1 54.7 69 NE 8 G 13 30.04 1017.3 0.00 95 0.6 0.066
22 16:00 65.8 55.0 68 NNE 9 G 16 30.05 1017.7 0.00 190 1.2 0.060
22 15:00 65.6 54.8 68 NNE 10 G 15 30.05 1017.8 0.00 257 1.9 0.051
22 14:00 65.3 56.1 65.4 57.1 72 NNE 9 G 15 30.07 1018.2 0.00 417 3.2 0.042
22 13:00 63.5 55.8 76 NNE 6 G 10 30.08 1018.6 0.00 234 2.5 0.036
22 12:00 61.8 55.6 80 NE 13 G 18 30.09 1019.0 0.00 135 1.5 0.031
22 11:00 61.2 53.9 77 NNE 7 G 17 30.10 1019.3 0.00 84 1.0 0.026
22 10:00 60.8 52.8 75 NNE 11 G 18 30.09 1019.0 0.00 183 1.6 0.022
22 09:00 57.4 50.9 79 N 9 G 15 30.09 1019.2 0.00 60 0.8 0.019
22 08:00 57.2 50.8 60.6 57.0 79 N 6 G 14 30.09 1019.1 0.00 62 0.0 0.017
22 07:00 57.4 50.6 78 N 6 G 16 30.08 1018.8 0.00 23 0.0 0.015
22 06:00 58.2 50.7 76 NNE 8 G 17 30.07 1018.4 0.00 0 0.0 0.013
22 05:00 59.1 50.8 74 NNE 9 G 18 30.08 1018.5 0.00 0 0.0 0.011
22 04:00 59.7 51.0 73 NNE 12 G 20 30.07 1018.5 0.00 0 0.0 0.009
22 03:00 60.2 51.5 73 NNE 11 G 18 30.08 1018.8 0.00 0 0.0 0.006
22 02:00 60.5 51.8 63.8 60.4 73 NNE 11 G 20 30.09 1019.2 0.00 0 0.0 0.003
22 01:00 61.4 52.3 72 NNE 14 G 21 30.10 1019.3 0.00 0 0.0 0.000
22 00:00 62.1 53.4 73 NNE 15 G 19 30.09 1019.2 0.00 0 0.0 0.132
21 23:00 62.6 54.2 74 NE 12 G 20 30.09 1019.0 0.00 0 0.0 0.129
21 22:00 63.8 52.2 66 NNE 10 G 18 30.09 1019.1 0.00 0 0.0 0.127
21 21:00 60.5 55.0 82 NNE 3 G 8 30.09 1019.1 0.00 0 0.0 0.126
21 20:00 60.7 55.2 70.6 60.5 82 NE 4 G 11 30.08 1018.6 0.00 0 0.0 0.125
21 19:00 62.5 54.8 76 NE 8 G 13 30.06 1018.1 0.00 0 0.0 0.123
21 18:00 67.4 53.9 62 N 4 G 10 30.05 1017.7 0.00 39 0.0 0.118
21 17:00 69.2 53.3 57 N 7 G 14 30.05 1017.5 0.00 132 0.6 0.110
21 16:00 69.2 55.6 62 NNE 7 G 15 30.05 1017.6 0.00 383 1.6 0.097
21 15:00 67.3 56.4 68 NE 12 G 15 30.06 1017.9 0.00 534 2.8 0.079
21 14:00 68.4 56.2 71.0 63.6 65 NE 11 G 15 30.05 1017.6 0.00 775 4.6 0.059
21 13:00 69.0 57.2 66 NE 10 G 15 30.05 1017.7 0.00 663 4.8 0.040
21 12:00 68.8 57.8 68 NE 9 G 17 30.07 1018.4 0.00 737 5.5 0.021
21 11:00 67.0 56.9 70 NNE 11 G 16 30.07 1018.4 0.00 65 2.6 0.017
21 10:00 66.3 57.0 72 NNE 12 G 17 30.07 1018.4 0.00 62 2.0 0.013
21 09:00 65.1 57.0 75 N 14 G 23 30.05 1017.7 0.00 67 1.3 0.010
21 08:00 63.6 58.7 68.5 63.0 84 N 11 G 22 30.02 1016.8 0.00 42 0.0 0.008
21 07:00 63.5 59.2 86 N 12 G 19 30.00 1016.1 0.00 21 0.0 0.006
21 06:00 65.1 60.5 85 N 8 G 18 29.99 1015.5 0.00 0 0.0 0.005
21 05:00 66.7 62.4 86 NNE 10 G 18 29.97 1014.9 0.00 0 0.0 0.004
21 04:00 67.6 64.2 89 NNE 10 G 21 29.95 1014.4 0.00 0 0.0 0.003
21 03:00 67.7 63.7 87 N 9 G 17 29.94 1014.1 0.00 0 0.0 0.002
21 02:00 68.4 64.1 71.4 68.4 86 N 10 G 17 29.94 1013.9 0.00 0 0.0 0.001
21 01:00 68.9 64.5 86 N 9 G 19 29.95 1014.3 0.00 0 0.0 0.000
21 00:00 69.7 65.3 86 N 9 G 17 29.94 1014.0 0.01 0 0.0 0.051
20 23:00 70.6 65.5 84 NNE 9 G 16 29.94 1014.0 0.01 0 0.0 0.049
20 22:00 71.2 66.5 85 N 10 G 24 29.93 1013.6 0.01 0 0.0 0.048
20 21:00 71.0 67.6 89 N 9 G 15 29.92 1013.3 0.01 0 0.0 0.047
20 20:00 71.3 68.2 73.8 69.0 90 N 6 G 14 29.92 1013.3 0.01 0 0.0 0.046
20 19:00 71.6 68.2 89 N 6 G 9 29.92 1013.2 0.01 0 0.0 0.045
20 18:00 72.8 68.7 87 NNE 6 G 13 29.91 1013.0 0.01 39 0.0 0.042
20 17:00 73.6 69.2 86 NNE 4 G 13 29.90 1012.7 0.01 120 0.6 0.037
20 16:00 72.8 69.0 88 NNE 8 G 13 29.91 1012.9 0.01 301 1.5 0.030
20 15:00 71.0 68.2 91 NNE 9 G 14 29.92 1013.1 0.01 301 2.2 0.022
20 14:00 69.0 68.4 69.0 64.6 98 NNE 8 G 14 29.93 1013.6 0.01 221 2.3 0.018
20 13:00 67.0 66.4 98 NNE 10 G 15 29.94 1014.1 0.01 141 1.6 0.014
20 12:00 66.5 65.9 98 NNE 10 G 18 29.96 1014.5 0.01 183 1.9 0.010
20 11:00 65.9 65.6 99 NNE 8 G 11 29.97 1014.9 0.01 153 1.5 0.005
20 10:00 65.0 64.7 99 NNE 9 G 17 29.98 1015.2 0.01 130 1.0 0.003
20 09:00 65.2 64.9 99 NNE 8 G 16 29.98 1015.1 0.01 118 0.8 0.001
20 08:00 65.2 64.9 66.4 64.6 99 NNE 11 G 16 29.98 1015.3 0.01 0.01 76 0.5 0.000
20 07:00 65.7 65.4 99 NNE 10 G 15 29.98 1015.3 0.01 14 0.0 0.000
20 06:00 66.2 65.9 99 NNE 8 G 15 29.98 1015.2 0.01 0 0.0 0.000
20 05:00 65.8 65.5 99 NNE 11 G 16 29.98 1015.3 0.01 0.01 0 0.0 0.000
20 04:00 65.2 64.9 99 NNE 11 G 17 29.99 1015.6 0.01 0 0.0 0.000

Data generated by WxSolution Version 1.9.0.6, Build 2017.01.14.